createdAt,value
2022-08-11T00:01:25.375Z,96.80
2022-08-11T00:04:00.580Z,96.80
2022-08-11T00:06:36.178Z,97.00
2022-08-11T00:09:07.032Z,97.30
2022-08-11T00:12:00.281Z,97.40
2022-08-11T00:14:37.220Z,97.90
2022-08-11T00:17:14.029Z,98.10
2022-08-11T00:20:12.252Z,98.20
2022-08-11T00:22:34.218Z,98.40
2022-08-11T00:25:10.337Z,98.60
2022-08-11T00:27:40.566Z,98.80
2022-08-11T00:30:09.437Z,99.10
2022-08-11T00:32:39.030Z,99.30
2022-08-11T00:35:56.229Z,99.40
2022-08-11T00:37:57.040Z,99.90
2022-08-11T00:40:34.348Z,99.90
2022-08-11T00:43:23.924Z,99.90
2022-08-11T00:46:25.829Z,99.90
2022-08-11T00:49:21.363Z,99.90
2022-08-11T00:55:56.048Z,99.90
2022-08-11T00:58:26.445Z,99.90
2022-08-11T01:01:13.872Z,99.90
2022-08-11T01:03:54.597Z,99.90
2022-08-11T01:06:22.801Z,99.90
2022-08-11T01:09:31.595Z,99.90
2022-08-11T01:12:29.545Z,99.90
2022-08-11T01:15:34.170Z,99.90
2022-08-11T01:18:28.454Z,99.90
2022-08-11T01:21:23.607Z,99.90
2022-08-11T01:24:15.384Z,99.90
2022-08-11T01:26:54.368Z,99.90
2022-08-11T01:29:52.418Z,99.90
2022-08-11T01:32:56.871Z,99.90
2022-08-11T01:36:00.096Z,99.90
2022-08-11T01:38:48.445Z,99.90
2022-08-11T01:42:00.940Z,99.90
2022-08-11T01:44:52.421Z,99.90
2022-08-11T01:47:54.413Z,99.90
2022-08-11T01:50:31.245Z,99.90
2022-08-11T01:53:18.199Z,99.90
2022-08-11T01:56:06.398Z,99.90
2022-08-11T01:58:44.582Z,99.90
2022-08-11T02:01:32.408Z,99.90
2022-08-11T02:04:29.547Z,99.90
2022-08-11T02:07:33.142Z,99.90
2022-08-11T02:10:26.827Z,99.90
2022-08-11T02:13:36.680Z,99.90
2022-08-11T02:16:08.591Z,99.90
2022-08-11T02:18:59.007Z,99.90
2022-08-11T02:21:58.048Z,99.90
2022-08-11T02:24:33.121Z,99.90
2022-08-11T02:27:14.882Z,99.90
2022-08-11T02:29:49.581Z,99.90
2022-08-11T02:32:34.877Z,99.90
2022-08-11T02:35:23.372Z,99.90
2022-08-11T02:38:12.185Z,99.90
2022-08-11T02:41:34.964Z,99.90
2022-08-11T02:44:34.658Z,99.90
2022-08-11T02:47:25.208Z,99.90
2022-08-11T02:50:17.945Z,99.90
2022-08-11T02:53:18.140Z,99.90
2022-08-11T02:55:57.129Z,99.90
2022-08-11T02:59:13.846Z,99.90
2022-08-11T03:02:02.447Z,99.90
2022-08-11T03:04:57.469Z,99.90
2022-08-11T03:07:52.344Z,99.90
2022-08-11T03:10:23.567Z,99.90
2022-08-11T03:13:33.678Z,99.90
2022-08-11T03:17:00.199Z,99.90
2022-08-11T03:20:04.649Z,99.90
2022-08-11T03:23:19.849Z,99.90
2022-08-11T03:26:24.202Z,99.90
2022-08-11T03:29:03.123Z,99.90
2022-08-11T03:31:46.799Z,99.90
2022-08-11T03:34:25.213Z,99.90
2022-08-11T03:37:16.170Z,99.90
2022-08-11T03:40:38.585Z,99.90
2022-08-11T03:43:30.933Z,99.90
2022-08-11T03:46:10.466Z,99.90
2022-08-11T03:48:54.726Z,99.90
2022-08-11T03:51:51.833Z,99.90
2022-08-11T03:54:37.976Z,99.90
2022-08-11T03:57:29.696Z,99.90
2022-08-11T04:00:11.728Z,99.90
2022-08-11T04:03:09.680Z,99.90
2022-08-11T04:05:45.626Z,99.90
2022-08-11T04:08:33.852Z,99.90
2022-08-11T04:11:19.470Z,99.90
2022-08-11T04:14:42.851Z,99.90
2022-08-11T04:17:19.790Z,99.90
2022-08-11T04:20:22.876Z,99.90
2022-08-11T04:22:52.498Z,99.90
2022-08-11T04:25:58.279Z,99.90
2022-08-11T04:28:50.894Z,99.90
2022-08-11T04:31:51.907Z,99.90
2022-08-11T04:34:28.573Z,99.90
2022-08-11T04:37:34.387Z,99.90
2022-08-11T04:40:23.442Z,99.90
2022-08-11T04:43:21.077Z,99.90
2022-08-11T04:46:25.509Z,99.90
2022-08-11T04:49:37.655Z,99.90
2022-08-11T04:52:42.239Z,99.90
2022-08-11T04:56:00.505Z,99.90
2022-08-11T04:59:15.200Z,99.90
2022-08-11T05:02:04.883Z,99.90
2022-08-11T05:05:31.935Z,99.90
2022-08-11T05:08:27.897Z,99.90
2022-08-11T05:11:11.649Z,99.90
2022-08-11T05:14:06.332Z,99.90
2022-08-11T05:17:09.378Z,99.90
2022-08-11T05:19:56.166Z,99.90
2022-08-11T05:22:47.361Z,99.90
2022-08-11T05:26:43.827Z,99.90
2022-08-11T05:29:00.157Z,99.90
2022-08-11T05:31:58.712Z,99.90
2022-08-11T05:34:56.852Z,99.90
2022-08-11T05:37:29.788Z,99.90
2022-08-11T05:40:18.971Z,99.90
2022-08-11T05:43:16.359Z,99.90
2022-08-11T05:46:05.432Z,99.90
2022-08-11T05:48:55.778Z,99.90
2022-08-11T05:51:54.778Z,99.90
2022-08-11T05:54:42.531Z,99.90
2022-08-11T05:57:45.450Z,99.90
2022-08-11T06:00:10.445Z,99.90
2022-08-11T06:02:46.697Z,99.90
2022-08-11T06:05:14.318Z,99.90
2022-08-11T06:07:49.327Z,99.90
2022-08-11T06:10:33.776Z,99.90
2022-08-11T06:13:01.700Z,99.90
2022-08-11T06:15:31.004Z,99.90
2022-08-11T06:18:01.292Z,99.90
2022-08-11T06:20:32.740Z,99.90
2022-08-11T06:23:03.780Z,99.90
2022-08-11T06:25:32.634Z,99.90
2022-08-11T06:28:00.377Z,99.90
2022-08-11T06:30:40.406Z,99.90
2022-08-11T06:33:13.572Z,99.90
2022-08-11T06:36:17.440Z,99.90
2022-08-11T06:38:50.632Z,99.90
2022-08-11T06:41:32.041Z,99.90
2022-08-11T06:44:14.004Z,99.90
2022-08-11T06:46:43.266Z,99.90
2022-08-11T06:49:31.854Z,99.90
2022-08-11T06:52:34.903Z,99.90
2022-08-11T06:55:55.941Z,99.90
2022-08-11T06:58:41.564Z,99.90
2022-08-11T07:01:17.074Z,99.90
2022-08-11T07:03:49.156Z,99.90
2022-08-11T07:06:41.507Z,99.90
2022-08-11T07:10:27.276Z,99.90
2022-08-11T07:13:45.644Z,99.90
2022-08-11T07:16:12.599Z,99.90
2022-08-11T07:19:00.899Z,99.90
2022-08-11T07:22:02.867Z,99.90
2022-08-11T07:25:03.583Z,99.90
2022-08-11T07:28:03.312Z,99.90
2022-08-11T07:30:32.707Z,99.90
2022-08-11T07:33:02.675Z,99.90
2022-08-11T07:35:43.892Z,99.90
2022-08-11T07:38:25.210Z,99.90
2022-08-11T07:40:52.692Z,99.90
2022-08-11T07:43:20.018Z,99.90
2022-08-11T07:46:06.510Z,99.90
2022-08-11T07:48:53.430Z,99.90
2022-08-11T07:51:39.169Z,99.90
2022-08-11T07:54:14.499Z,99.90
2022-08-11T07:56:55.210Z,99.90
2022-08-11T08:00:03.740Z,99.30
2022-08-11T08:02:51.105Z,98.50
2022-08-11T08:05:40.288Z,97.80
2022-08-11T08:08:27.832Z,97.80
2022-08-11T08:11:16.234Z,97.90
2022-08-11T08:14:01.970Z,95.70
2022-08-11T08:16:49.664Z,95.10
2022-08-11T08:19:18.974Z,93.60
2022-08-11T08:21:47.189Z,92.30
2022-08-11T08:24:15.273Z,93.80
2022-08-11T08:27:00.699Z,93.60
2022-08-11T08:29:53.035Z,94.00
2022-08-11T08:32:21.773Z,93.80
2022-08-11T08:34:52.672Z,91.90
2022-08-11T08:37:46.664Z,92.70
2022-08-11T08:40:10.205Z,92.50
2022-08-11T08:42:54.232Z,92.00
2022-08-11T08:45:25.591Z,91.50
2022-08-11T08:47:59.242Z,91.80
2022-08-11T08:50:50.374Z,91.00
2022-08-11T08:53:31.998Z,90.90
2022-08-11T08:56:01.213Z,90.30
2022-08-11T08:58:29.606Z,91.50
2022-08-11T09:00:59.465Z,90.80
2022-08-11T09:04:07.077Z,89.00
2022-08-11T09:06:17.396Z,90.30
2022-08-11T09:08:46.477Z,86.60
2022-08-11T09:11:39.597Z,86.50
2022-08-11T09:14:09.358Z,86.60
2022-08-11T09:16:40.219Z,82.10
2022-08-11T09:19:08.660Z,84.40
2022-08-11T09:21:49.545Z,84.80
2022-08-11T11:25:20.301Z,66.90
2022-08-11T11:28:10.263Z,66.40
2022-08-11T11:30:48.364Z,66.00
2022-08-11T11:34:06.734Z,65.00
2022-08-11T11:36:39.675Z,67.30
2022-08-11T11:39:08.005Z,65.20
2022-08-11T11:41:35.976Z,64.20
2022-08-11T11:44:04.296Z,65.10
2022-08-11T11:46:38.845Z,64.80
2022-08-11T11:49:13.959Z,64.20
2022-08-11T11:51:46.004Z,63.50
2022-08-11T11:54:17.656Z,63.10
2022-08-11T11:56:45.478Z,63.90
2022-08-11T11:59:32.583Z,63.30
2022-08-11T12:02:01.006Z,64.10
2022-08-11T12:04:43.545Z,62.00
2022-08-11T12:07:30.842Z,61.90
2022-08-11T12:09:59.023Z,62.70
2022-08-11T12:12:45.026Z,61.50
2022-08-11T12:15:12.964Z,59.20
2022-08-11T12:17:40.523Z,58.90
2022-08-11T12:20:31.515Z,61.80
2022-08-11T12:23:15.318Z,58.50
2022-08-11T12:26:25.851Z,58.00
2022-08-11T12:28:50.524Z,59.10
2022-08-11T12:31:17.908Z,60.60
2022-08-11T12:33:45.357Z,58.70
2022-08-11T12:36:16.400Z,58.80
2022-08-11T12:38:48.573Z,56.90
2022-08-11T12:41:39.435Z,58.50
2022-08-11T12:44:29.556Z,59.40
2022-08-11T12:46:59.664Z,58.00
2022-08-11T12:49:48.427Z,55.60
2022-08-11T12:52:22.322Z,55.10
2022-08-11T12:54:52.496Z,54.80
2022-08-11T12:57:44.512Z,53.20
2022-08-11T13:00:32.725Z,52.70
2022-08-11T13:03:19.020Z,55.60
2022-08-11T13:05:48.237Z,55.90
2022-08-11T13:08:16.705Z,54.70
2022-08-11T13:11:03.692Z,52.60
2022-08-11T13:13:54.031Z,51.40
2022-08-11T13:16:20.625Z,50.20
2022-08-11T13:18:48.343Z,54.60
2022-08-11T13:21:19.973Z,54.70
2022-08-11T13:24:01.143Z,50.60
2022-08-11T13:26:43.522Z,49.80
2022-08-11T13:29:24.517Z,50.50
2022-08-11T13:31:56.547Z,49.00
2022-08-11T13:34:25.543Z,50.20
2022-08-11T13:36:55.316Z,48.90
2022-08-11T13:39:26.217Z,47.90
2022-08-11T13:41:59.630Z,47.20
2022-08-11T13:44:33.345Z,48.10
2022-08-11T13:47:04.312Z,46.90
2022-08-11T13:49:34.937Z,48.70
2022-08-11T13:52:09.694Z,47.80
2022-08-11T13:54:39.130Z,48.20
2022-08-11T13:57:13.642Z,47.90
2022-08-11T14:00:09.622Z,45.80
2022-08-11T14:02:44.269Z,45.50
2022-08-11T14:05:19.901Z,47.10
2022-08-11T14:07:52.316Z,45.60
2022-08-11T14:10:22.639Z,45.80
2022-08-11T14:13:19.777Z,44.50
2022-08-11T14:15:49.959Z,47.00
2022-08-11T14:18:25.846Z,46.60
2022-08-11T14:21:14.441Z,46.40
2022-08-11T14:23:46.723Z,46.50
2022-08-11T14:26:28.919Z,45.20
2022-08-11T14:29:02.944Z,45.10
2022-08-11T14:31:32.118Z,44.80
2022-08-11T14:34:02.888Z,44.90
2022-08-11T14:36:39.156Z,43.40
2022-08-11T14:39:17.164Z,45.90
2022-08-11T14:42:14.584Z,45.00
2022-08-11T14:45:03.790Z,45.40
2022-08-11T14:47:37.058Z,43.40
2022-08-11T14:50:10.835Z,44.50
2022-08-11T14:52:59.157Z,43.10
2022-08-11T14:55:47.512Z,43.70
2022-08-11T14:58:20.924Z,45.30
2022-08-11T15:00:52.620Z,46.90
2022-08-11T15:03:22.177Z,43.70
2022-08-11T15:06:02.139Z,44.40
2022-08-11T15:08:54.560Z,45.00
2022-08-11T15:11:47.338Z,46.40
2022-08-11T15:14:34.838Z,46.60
2022-08-11T15:17:08.538Z,46.60
2022-08-11T15:19:41.070Z,45.20
2022-08-11T15:22:28.693Z,47.30
2022-08-11T15:24:58.132Z,45.10
2022-08-11T15:27:44.929Z,44.10
2022-08-11T15:30:33.188Z,45.00
2022-08-11T15:33:24.491Z,44.50
2022-08-11T15:36:11.487Z,45.30
2022-08-11T15:38:49.326Z,45.40
2022-08-11T15:41:45.520Z,44.80
2022-08-11T15:45:03.068Z,44.20
2022-08-11T15:47:38.941Z,46.00
2022-08-11T15:50:14.106Z,45.50
2022-08-11T15:52:56.121Z,45.10
2022-08-11T15:55:24.581Z,45.50
2022-08-11T15:58:13.569Z,44.90
2022-08-11T16:01:08.690Z,46.00
2022-08-11T16:04:08.175Z,46.00
2022-08-11T16:06:47.486Z,47.70
2022-08-11T16:09:19.133Z,47.40
2022-08-11T16:11:49.076Z,48.40
2022-08-11T16:14:36.207Z,49.50
2022-08-11T16:17:05.926Z,49.80
2022-08-11T16:19:36.641Z,49.60
2022-08-11T16:22:10.355Z,48.90
2022-08-11T16:27:03.823Z,50.20
2022-08-11T16:27:34.877Z,50.00
2022-08-11T16:30:02.605Z,51.10
2022-08-11T16:32:31.576Z,50.90
2022-08-11T16:35:21.115Z,51.30
2022-08-11T16:38:07.884Z,51.30
2022-08-11T16:40:35.415Z,51.50
2022-08-11T16:43:24.161Z,51.70
2022-08-11T16:46:11.659Z,52.60
2022-08-11T16:48:43.115Z,52.40
2022-08-11T16:51:12.547Z,52.80
2022-08-11T16:53:50.124Z,52.90
2022-08-11T16:56:32.846Z,52.40
2022-08-11T16:59:15.913Z,53.50
2022-08-11T17:01:56.133Z,53.90
2022-08-11T17:05:06.173Z,53.10
2022-08-11T17:07:52.489Z,53.10
2022-08-11T17:11:01.514Z,53.40
2022-08-11T17:13:46.778Z,53.60
2022-08-11T17:16:19.908Z,53.30
2022-08-11T17:19:14.305Z,53.10
2022-08-11T17:22:05.326Z,53.50
2022-08-11T17:24:35.555Z,53.90
2022-08-11T17:27:05.726Z,54.00
2022-08-11T17:29:53.593Z,54.00
2022-08-11T17:33:02.369Z,53.80
2022-08-11T17:35:37.900Z,54.30
2022-08-11T17:38:18.145Z,54.00
2022-08-11T17:41:22.738Z,54.20
2022-08-11T17:44:11.021Z,54.30
2022-08-11T17:47:03.587Z,54.10
2022-08-11T17:49:37.368Z,54.50
2022-08-11T17:52:25.096Z,54.80
2022-08-11T17:55:13.388Z,55.20
2022-08-11T17:58:13.998Z,55.00
2022-08-11T18:00:41.739Z,55.10
2022-08-11T18:03:28.276Z,55.40
2022-08-11T18:05:57.259Z,55.70
2022-08-11T18:08:43.318Z,55.60
2022-08-11T18:12:11.239Z,56.40
2022-08-11T18:14:38.332Z,57.60
2022-08-11T18:17:24.464Z,55.90
2022-08-11T18:20:09.852Z,56.70
2022-08-11T18:22:59.740Z,56.70
2022-08-11T18:25:57.188Z,57.30
2022-08-11T18:28:51.925Z,58.60
2022-08-11T18:31:40.230Z,58.70
2022-08-11T18:34:29.119Z,58.90
2022-08-11T18:37:27.415Z,59.10
2022-08-11T18:40:24.174Z,60.10
2022-08-11T18:43:11.593Z,61.00
2022-08-11T18:46:06.288Z,61.80
2022-08-11T18:48:55.673Z,62.10
2022-08-11T18:51:44.126Z,62.50
2022-08-11T18:54:32.361Z,62.50
2022-08-11T18:57:21.920Z,62.70
2022-08-11T19:00:12.526Z,62.80
2022-08-11T19:02:59.180Z,63.70
2022-08-11T19:06:31.773Z,63.70
2022-08-11T19:08:58.669Z,64.50
2022-08-11T19:11:45.657Z,64.40
2022-08-11T19:14:32.698Z,64.80
2022-08-11T19:17:42.963Z,65.00
2022-08-11T19:20:30.515Z,65.50
2022-08-11T19:23:16.880Z,65.90
2022-08-11T19:26:04.128Z,65.60
2022-08-11T19:28:51.268Z,66.00
2022-08-11T19:31:42.309Z,66.70
2022-08-11T19:34:35.293Z,66.00
2022-08-11T19:37:24.595Z,66.70
2022-08-11T19:40:12.792Z,66.60
2022-08-11T19:43:00.554Z,67.10
2022-08-11T19:45:50.548Z,66.70
2022-08-11T19:48:43.144Z,66.80
2022-08-11T19:51:30.036Z,68.20
2022-08-11T19:54:16.279Z,67.70
2022-08-11T19:57:02.887Z,67.50
2022-08-11T19:59:50.470Z,68.30
2022-08-11T20:02:36.737Z,68.40
2022-08-11T20:05:24.367Z,68.20
2022-08-11T20:08:14.836Z,68.30
2022-08-11T20:11:01.079Z,68.40
2022-08-11T20:13:48.079Z,68.70
2022-08-11T20:16:38.115Z,69.10
2022-08-11T20:19:55.900Z,69.10
2022-08-11T20:22:35.297Z,69.80
2022-08-11T20:25:24.571Z,69.90
2022-08-11T20:28:11.871Z,69.80
2022-08-11T20:30:59.346Z,70.00
2022-08-11T20:33:45.152Z,70.20
2022-08-11T20:36:34.656Z,70.80
2022-08-11T20:39:23.887Z,70.80
2022-08-11T20:42:11.205Z,71.00
2022-08-11T20:44:59.121Z,71.10
2022-08-11T20:47:59.355Z,71.20
2022-08-11T20:50:47.618Z,71.00
2022-08-11T20:53:39.219Z,71.60
2022-08-11T20:56:28.725Z,71.60
2022-08-11T20:59:18.822Z,72.00
2022-08-11T21:02:09.780Z,72.00
2022-08-11T21:05:19.467Z,72.00
2022-08-11T21:08:13.279Z,71.90
2022-08-11T21:11:01.157Z,72.30
2022-08-11T21:13:52.829Z,72.80
2022-08-11T21:16:48.947Z,72.90
2022-08-11T21:20:01.779Z,72.80
2022-08-11T21:23:05.283Z,73.00
2022-08-11T21:26:04.486Z,73.50
2022-08-11T21:28:52.277Z,73.40
2022-08-11T21:31:39.645Z,73.60
2022-08-11T21:34:26.993Z,74.10
2022-08-11T21:37:12.992Z,73.70
2022-08-11T21:40:00.799Z,74.10
2022-08-11T21:42:46.716Z,74.10
2022-08-11T21:45:33.626Z,74.30
2022-08-11T21:48:19.877Z,74.60
2022-08-11T21:51:05.196Z,74.90
2022-08-11T21:53:52.179Z,74.70
2022-08-11T21:56:37.939Z,75.00
2022-08-11T21:59:24.597Z,75.50
2022-08-11T22:02:12.873Z,75.50
2022-08-11T22:05:00.430Z,75.50
2022-08-11T22:07:46.950Z,75.70
2022-08-11T22:10:42.458Z,76.10
2022-08-11T22:13:30.751Z,76.10
2022-08-11T22:16:18.154Z,76.20
2022-08-11T22:19:06.073Z,76.60
2022-08-11T22:22:01.835Z,76.70
2022-08-11T22:24:51.444Z,76.70
2022-08-11T22:27:37.675Z,76.90
2022-08-11T22:30:28.941Z,77.30
2022-08-11T22:33:16.546Z,77.50
2022-08-11T22:36:04.161Z,77.80
2022-08-11T22:38:51.908Z,78.20
2022-08-11T22:41:37.663Z,78.20
2022-08-11T22:44:23.715Z,78.50
2022-08-11T22:47:12.106Z,78.80
2022-08-11T22:49:58.724Z,79.00
2022-08-11T22:52:46.979Z,79.00
2022-08-11T22:55:33.899Z,79.30
2022-08-11T22:58:21.153Z,79.70
2022-08-11T23:01:08.138Z,79.70
2022-08-11T23:03:55.107Z,80.10
2022-08-11T23:06:41.122Z,80.10
2022-08-11T23:09:27.941Z,80.40
2022-08-11T23:12:13.710Z,80.60
2022-08-11T23:14:59.977Z,80.90
2022-08-11T23:17:46.408Z,81.10
2022-08-11T23:36:35.747Z,82.50
2022-08-11T23:39:21.500Z,82.60
2022-08-11T23:42:07.155Z,83.00
2022-08-11T23:44:52.606Z,83.50
2022-08-11T23:47:50.824Z,83.80
2022-08-11T23:50:37.675Z,84.10
2022-08-11T23:53:23.593Z,84.20
2022-08-11T23:56:09.602Z,84.40
2022-08-11T23:58:55.938Z,84.40
